sensor_id;sensor_type;location;lat;lon;timestamp;pressure;altitude;pressure_sealevel;temperature;humidity
62800;BME280;48842;51.046;13.796;2023-07-02T00:01:01;99293.03;;;22.63;nan
62800;BME280;48842;51.046;13.796;2023-07-02T00:03:26;99287.59;;;22.64;nan
62800;BME280;48842;51.046;13.796;2023-07-02T00:05:52;99284.94;;;22.64;nan
62800;BME280;48842;51.046;13.796;2023-07-02T00:08:19;99291.91;;;22.67;nan
62800;BME280;48842;51.046;13.796;2023-07-02T00:10:44;99287.25;;;22.71;nan
62800;BME280;48842;51.046;13.796;2023-07-02T00:13:10;99289.81;;;22.72;nan
62800;BME280;48842;51.046;13.796;2023-07-02T00:15:35;99290.66;;;22.73;nan
62800;BME280;48842;51.046;13.796;2023-07-02T00:18:00;99292.59;;;22.71;nan
62800;BME280;48842;51.046;13.796;2023-07-02T00:20:25;99293.72;;;22.66;nan
62800;BME280;48842;51.046;13.796;2023-07-02T00:22:51;99295.16;;;22.58;nan
62800;BME280;48842;51.046;13.796;2023-07-02T00:25:16;99287.91;;;22.60;nan
62800;BME280;48842;51.046;13.796;2023-07-02T00:27:41;99290.66;;;22.58;nan
62800;BME280;48842;51.046;13.796;2023-07-02T00:30:08;99290.78;;;22.57;nan
62800;BME280;48842;51.046;13.796;2023-07-02T00:32:33;99293.44;;;22.57;nan
62800;BME280;48842;51.046;13.796;2023-07-02T00:34:58;99289.03;;;22.56;nan
62800;BME280;48842;51.046;13.796;2023-07-02T00:37:24;99290.22;;;22.52;nan
62800;BME280;48842;51.046;13.796;2023-07-02T00:39:49;99292.88;;;22.52;nan
62800;BME280;48842;51.046;13.796;2023-07-02T00:42:14;99285.03;;;22.48;nan
62800;BME280;48842;51.046;13.796;2023-07-02T00:44:40;99287.63;;;22.50;nan
62800;BME280;48842;51.046;13.796;2023-07-02T00:47:07;99288.59;;;22.49;nan
62800;BME280;48842;51.046;13.796;2023-07-02T00:49:32;99290.47;;;22.47;nan
62800;BME280;48842;51.046;13.796;2023-07-02T00:51:58;99289.63;;;22.46;nan
62800;BME280;48842;51.046;13.796;2023-07-02T00:54:23;99293.16;;;22.47;nan
62800;BME280;48842;51.046;13.796;2023-07-02T00:56:49;99298.28;;;22.50;nan
62800;BME280;48842;51.046;13.796;2023-07-02T00:59:15;99289.44;;;22.49;nan
62800;BME280;48842;51.046;13.796;2023-07-02T01:01:40;99295.56;;;22.52;nan
62800;BME280;48842;51.046;13.796;2023-07-02T01:04:06;99296.22;;;22.55;nan
62800;BME280;48842;51.046;13.796;2023-07-02T01:06:34;99291.63;;;22.57;nan
62800;BME280;48842;51.046;13.796;2023-07-02T01:09:02;99299.72;;;22.56;nan
62800;BME280;48842;51.046;13.796;2023-07-02T01:11:37;99294.38;;;22.56;nan
62800;BME280;48842;51.046;13.796;2023-07-02T01:14:12;99287.34;;;22.55;nan
62800;BME280;48842;51.046;13.796;2023-07-02T01:16:41;99291.16;;;22.51;nan
62800;BME280;48842;51.046;13.796;2023-07-02T01:19:12;99281.34;;;22.51;nan
62800;BME280;48842;51.046;13.796;2023-07-02T01:21:38;99281.22;;;22.53;nan
62800;BME280;48842;51.046;13.796;2023-07-02T01:24:05;99283.34;;;22.47;nan
62800;BME280;48842;51.046;13.796;2023-07-02T01:26:31;99282.47;;;22.47;nan
62800;BME280;48842;51.046;13.796;2023-07-02T01:29:20;99275.69;;;22.41;nan
62800;BME280;48842;51.046;13.796;2023-07-02T01:31:46;99283.56;;;22.44;nan
62800;BME280;48842;51.046;13.796;2023-07-02T01:34:12;99281.72;;;22.45;nan
62800;BME280;48842;51.046;13.796;2023-07-02T01:36:38;99272.09;;;22.42;nan
62800;BME280;48842;51.046;13.796;2023-07-02T01:39:04;99279.75;;;22.34;nan
62800;BME280;48842;51.046;13.796;2023-07-02T01:41:36;99276.34;;;22.30;nan
62800;BME280;48842;51.046;13.796;2023-07-02T01:44:02;99276.44;;;22.29;nan
62800;BME280;48842;51.046;13.796;2023-07-02T01:46:28;99288.84;;;22.30;nan
62800;BME280;48842;51.046;13.796;2023-07-02T01:48:53;99283.88;;;22.24;nan
62800;BME280;48842;51.046;13.796;2023-07-02T01:51:18;99277.88;;;22.20;nan
62800;BME280;48842;51.046;13.796;2023-07-02T01:53:43;99275.00;;;22.23;nan
62800;BME280;48842;51.046;13.796;2023-07-02T01:56:09;99279.22;;;22.27;nan
62800;BME280;48842;51.046;13.796;2023-07-02T01:58:34;99283.22;;;22.20;nan
62800;BME280;48842;51.046;13.796;2023-07-02T02:00:59;99277.59;;;22.25;nan
62800;BME280;48842;51.046;13.796;2023-07-02T02:03:25;99291.13;;;22.22;nan
62800;BME280;48842;51.046;13.796;2023-07-02T02:05:50;99274.72;;;22.13;nan
62800;BME280;48842;51.046;13.796;2023-07-02T02:08:15;99278.91;;;22.18;nan
62800;BME280;48842;51.046;13.796;2023-07-02T02:10:40;99273.47;;;22.19;nan
62800;BME280;48842;51.046;13.796;2023-07-02T02:13:05;99286.63;;;22.22;nan
62800;BME280;48842;51.046;13.796;2023-07-02T02:15:32;99285.78;;;22.22;nan
62800;BME280;48842;51.046;13.796;2023-07-02T02:17:57;99301.69;;;22.09;nan
62800;BME280;48842;51.046;13.796;2023-07-02T02:20:22;99291.88;;;22.09;nan
62800;BME280;48842;51.046;13.796;2023-07-02T02:22:48;99294.91;;;22.03;nan
62800;BME280;48842;51.046;13.796;2023-07-02T02:25:13;99298.34;;;22.05;nan
62800;BME280;48842;51.046;13.796;2023-07-02T02:27:38;99305.56;;;22.03;nan
62800;BME280;48842;51.046;13.796;2023-07-02T02:30:06;99300.22;;;22.03;nan
62800;BME280;48842;51.046;13.796;2023-07-02T02:32:32;99302.16;;;22.01;nan
62800;BME280;48842;51.046;13.796;2023-07-02T02:34:57;99299.66;;;21.98;nan
62800;BME280;48842;51.046;13.796;2023-07-02T02:37:22;99296.41;;;21.93;nan
62800;BME280;48842;51.046;13.796;2023-07-02T02:39:48;99305.53;;;21.89;nan
62800;BME280;48842;51.046;13.796;2023-07-02T02:42:14;99305.53;;;21.89;nan
62800;BME280;48842;51.046;13.796;2023-07-02T02:44:39;99306.50;;;21.88;nan
62800;BME280;48842;51.046;13.796;2023-07-02T02:47:04;99300.38;;;21.86;nan
62800;BME280;48842;51.046;13.796;2023-07-02T02:49:30;99303.53;;;21.78;nan
62800;BME280;48842;51.046;13.796;2023-07-02T02:51:55;99294.69;;;21.77;nan
62800;BME280;48842;51.046;13.796;2023-07-02T02:54:21;99295.44;;;21.79;nan
62800;BME280;48842;51.046;13.796;2023-07-02T02:56:46;99302.31;;;21.84;nan
62800;BME280;48842;51.046;13.796;2023-07-02T02:59:12;99307.44;;;21.87;nan
62800;BME280;48842;51.046;13.796;2023-07-02T03:01:37;99301.28;;;21.86;nan
62800;BME280;48842;51.046;13.796;2023-07-02T03:04:02;99307.34;;;21.88;nan
62800;BME280;48842;51.046;13.796;2023-07-02T03:06:27;99308.38;;;21.86;nan
62800;BME280;48842;51.046;13.796;2023-07-02T03:08:53;99307.63;;;21.84;nan
62800;BME280;48842;51.046;13.796;2023-07-02T03:11:18;99301.38;;;21.85;nan
62800;BME280;48842;51.046;13.796;2023-07-02T03:13:43;99310.22;;;21.85;nan
62800;BME280;48842;51.046;13.796;2023-07-02T03:16:09;99305.72;;;21.86;nan
62800;BME280;48842;51.046;13.796;2023-07-02T03:18:34;99310.13;;;21.87;nan
62800;BME280;48842;51.046;13.796;2023-07-02T03:21:00;99311.75;;;21.89;nan
62800;BME280;48842;51.046;13.796;2023-07-02T03:23:25;99319.84;;;21.88;nan
62800;BME280;48842;51.046;13.796;2023-07-02T03:25:50;99312.97;;;21.84;nan
62800;BME280;48842;51.046;13.796;2023-07-02T03:28:15;99311.34;;;21.81;nan
62800;BME280;48842;51.046;13.796;2023-07-02T03:30:41;99314.09;;;21.79;nan
62800;BME280;48842;51.046;13.796;2023-07-02T03:33:08;99317.13;;;21.73;nan
62800;BME280;48842;51.046;13.796;2023-07-02T03:35:33;99317.22;;;21.72;nan
62800;BME280;48842;51.046;13.796;2023-07-02T03:37:59;99309.31;;;21.70;nan
62800;BME280;48842;51.046;13.796;2023-07-02T03:40:24;99318.06;;;21.72;nan
62800;BME280;48842;51.046;13.796;2023-07-02T03:42:49;99316.38;;;21.71;nan
62800;BME280;48842;51.046;13.796;2023-07-02T03:45:14;99320.91;;;21.69;nan
62800;BME280;48842;51.046;13.796;2023-07-02T03:47:40;99326.53;;;21.65;nan
62800;BME280;48842;51.046;13.796;2023-07-02T03:50:05;99325.78;;;21.63;nan
62800;BME280;48842;51.046;13.796;2023-07-02T03:52:30;99331.09;;;21.63;nan
62800;BME280;48842;51.046;13.796;2023-07-02T03:54:56;99339.00;;;21.64;nan
62800;BME280;48842;51.046;13.796;2023-07-02T03:57:21;99332.72;;;21.65;nan
62800;BME280;48842;51.046;13.796;2023-07-02T03:59:46;99336.34;;;21.64;nan
62800;BME280;48842;51.046;13.796;2023-07-02T04:02:11;99347.09;;;21.63;nan
62800;BME280;48842;51.046;13.796;2023-07-02T04:04:37;99346.41;;;21.59;nan
62800;BME280;48842;51.046;13.796;2023-07-02T04:07:02;99353.97;;;21.51;nan
62800;BME280;48842;51.046;13.796;2023-07-02T04:09:27;99348.97;;;21.44;nan
62800;BME280;48842;51.046;13.796;2023-07-02T04:11:53;99353.53;;;21.42;nan
62800;BME280;48842;51.046;13.796;2023-07-02T04:14:18;99365.13;;;21.41;nan
62800;BME280;48842;51.046;13.796;2023-07-02T04:16:44;99357.41;;;21.37;nan
62800;BME280;48842;51.046;13.796;2023-07-02T04:19:10;99363.84;;;21.33;nan
62800;BME280;48842;51.046;13.796;2023-07-02T04:21:35;99361.34;;;21.30;nan
62800;BME280;48842;51.046;13.796;2023-07-02T04:24:01;99369.25;;;21.31;nan
62800;BME280;48842;51.046;13.796;2023-07-02T04:26:26;99380.69;;;21.33;nan
62800;BME280;48842;51.046;13.796;2023-07-02T04:28:52;99371.75;;;21.34;nan
62800;BME280;48842;51.046;13.796;2023-07-02T04:31:18;99380.44;;;21.38;nan
62800;BME280;48842;51.046;13.796;2023-07-02T04:33:44;99384.72;;;21.40;nan
62800;BME280;48842;51.046;13.796;2023-07-02T04:36:09;99382.13;;;21.39;nan
62800;BME280;48842;51.046;13.796;2023-07-02T04:38:34;99395.28;;;21.42;nan
62800;BME280;48842;51.046;13.796;2023-07-02T04:40:59;99394.25;;;21.44;nan
62800;BME280;48842;51.046;13.796;2023-07-02T04:43:31;99393.31;;;21.45;nan
62800;BME280;48842;51.046;13.796;2023-07-02T04:45:57;99398.66;;;21.45;nan
62800;BME280;48842;51.046;13.796;2023-07-02T04:48:22;99397.81;;;21.45;nan
62800;BME280;48842;51.046;13.796;2023-07-02T04:50:47;99400.47;;;21.45;nan
62800;BME280;48842;51.046;13.796;2023-07-02T04:53:13;99403.28;;;21.42;nan
62800;BME280;48842;51.046;13.796;2023-07-02T04:55:38;99401.41;;;21.44;nan
62800;BME280;48842;51.046;13.796;2023-07-02T04:58:03;99409.66;;;21.39;nan
62800;BME280;48842;51.046;13.796;2023-07-02T05:00:28;99404.34;;;21.39;nan
62800;BME280;48842;51.046;13.796;2023-07-02T05:02:54;99400.69;;;21.40;nan
62800;BME280;48842;51.046;13.796;2023-07-02T05:05:19;99408.59;;;21.42;nan
62800;BME280;48842;51.046;13.796;2023-07-02T05:07:44;99421.84;;;21.43;nan
62800;BME280;48842;51.046;13.796;2023-07-02T05:10:09;99412.06;;;21.44;nan
62800;BME280;48842;51.046;13.796;2023-07-02T05:12:35;99411.19;;;21.43;nan
62800;BME280;48842;51.046;13.796;2023-07-02T05:15:00;99421.94;;;21.42;nan
62800;BME280;48842;51.046;13.796;2023-07-02T05:17:25;99425.66;;;21.39;nan
62800;BME280;48842;51.046;13.796;2023-07-02T05:19:51;99431.91;;;21.38;nan
62800;BME280;48842;51.046;13.796;2023-07-02T05:22:17;99431.16;;;21.36;nan
62800;BME280;48842;51.046;13.796;2023-07-02T05:24:42;99430.09;;;21.39;nan
62800;BME280;48842;51.046;13.796;2023-07-02T05:27:08;99431.75;;;21.41;nan
62800;BME280;48842;51.046;13.796;2023-07-02T05:29:34;99435.25;;;21.42;nan
62800;BME280;48842;51.046;13.796;2023-07-02T05:31:59;99442.22;;;21.44;nan
62800;BME280;48842;51.046;13.796;2023-07-02T05:34:25;99433.22;;;21.47;nan
62800;BME280;48842;51.046;13.796;2023-07-02T05:36:50;99442.69;;;21.53;nan
62800;BME280;48842;51.046;13.796;2023-07-02T05:39:15;99439.00;;;21.55;nan
62800;BME280;48842;51.046;13.796;2023-07-02T05:41:41;99448.53;;;21.59;nan
62800;BME280;48842;51.046;13.796;2023-07-02T05:44:06;99443.91;;;21.63;nan
62800;BME280;48842;51.046;13.796;2023-07-02T05:46:31;99444.47;;;21.68;nan
62800;BME280;48842;51.046;13.796;2023-07-02T05:48:56;99452.16;;;21.74;nan
62800;BME280;48842;51.046;13.796;2023-07-02T05:51:23;99457.97;;;21.81;nan
62800;BME280;48842;51.046;13.796;2023-07-02T05:53:49;99450.41;;;21.89;nan
62800;BME280;48842;51.046;13.796;2023-07-02T05:56:14;99465.03;;;21.98;nan
62800;BME280;48842;51.046;13.796;2023-07-02T05:58:39;99465.41;;;22.06;nan
62800;BME280;48842;51.046;13.796;2023-07-02T06:01:05;99471.38;;;22.11;nan
62800;BME280;48842;51.046;13.796;2023-07-02T06:03:31;99467.41;;;22.19;nan
62800;BME280;48842;51.046;13.796;2023-07-02T06:05:56;99464.63;;;22.20;nan
62800;BME280;48842;51.046;13.796;2023-07-02T06:08:21;99468.25;;;22.19;nan
62800;BME280;48842;51.046;13.796;2023-07-02T06:10:47;99472.13;;;22.13;nan
62800;BME280;48842;51.046;13.796;2023-07-02T06:13:13;99476.97;;;22.07;nan
62800;BME280;48842;51.046;13.796;2023-07-02T06:15:38;99468.09;;;22.06;nan
62800;BME280;48842;51.046;13.796;2023-07-02T06:18:03;99467.06;;;22.09;nan
62800;BME280;48842;51.046;13.796;2023-07-02T06:20:29;99471.38;;;22.11;nan
62800;BME280;48842;51.046;13.796;2023-07-02T06:22:54;99474.97;;;22.10;nan
62800;BME280;48842;51.046;13.796;2023-07-02T06:25:19;99473.09;;;22.12;nan
62800;BME280;48842;51.046;13.796;2023-07-02T06:27:44;99484.53;;;22.14;nan
62800;BME280;48842;51.046;13.796;2023-07-02T06:30:10;99473.69;;;22.02;nan
62800;BME280;48842;51.046;13.796;2023-07-02T06:32:35;99473.13;;;21.96;nan
62800;BME280;48842;51.046;13.796;2023-07-02T06:35:00;99471.75;;;21.89;nan
62800;BME280;48842;51.046;13.796;2023-07-02T06:37:26;99472.50;;;21.91;nan
62800;BME280;48842;51.046;13.796;2023-07-02T06:39:51;99478.53;;;21.95;nan
62800;BME280;48842;51.046;13.796;2023-07-02T06:42:16;99487.13;;;22.00;nan
62800;BME280;48842;51.046;13.796;2023-07-02T06:44:41;99482.41;;;22.05;nan
62800;BME280;48842;51.046;13.796;2023-07-02T06:47:07;99483.94;;;22.09;nan
62800;BME280;48842;51.046;13.796;2023-07-02T06:49:32;99491.50;;;22.17;nan
62800;BME280;48842;51.046;13.796;2023-07-02T06:51:57;99491.94;;;22.09;nan
62800;BME280;48842;51.046;13.796;2023-07-02T06:54:25;99494.94;;;22.03;nan
62800;BME280;48842;51.046;13.796;2023-07-02T06:56:50;99496.16;;;21.97;nan
62800;BME280;48842;51.046;13.796;2023-07-02T06:59:22;99492.63;;;21.97;nan
62800;BME280;48842;51.046;13.796;2023-07-02T07:01:48;99494.28;;;22.00;nan
62800;BME280;48842;51.046;13.796;2023-07-02T07:04:14;99484.44;;;22.00;nan
62800;BME280;48842;51.046;13.796;2023-07-02T07:06:39;99484.63;;;22.13;nan
62800;BME280;48842;51.046;13.796;2023-07-02T07:09:04;99483.91;;;22.25;nan
62800;BME280;48842;51.046;13.796;2023-07-02T07:11:29;99490.47;;;22.36;nan
62800;BME280;48842;51.046;13.796;2023-07-02T07:13:55;99491.88;;;22.41;nan
62800;BME280;48842;51.046;13.796;2023-07-02T07:16:20;99490.75;;;22.45;nan
62800;BME280;48842;51.046;13.796;2023-07-02T07:18:46;99484.75;;;22.42;nan
62800;BME280;48842;51.046;13.796;2023-07-02T07:21:11;99487.34;;;22.43;nan
62800;BME280;48842;51.046;13.796;2023-07-02T07:23:36;99494.31;;;22.46;nan
62800;BME280;48842;51.046;13.796;2023-07-02T07:26:01;99493.94;;;22.52;nan
62800;BME280;48842;51.046;13.796;2023-07-02T07:28:27;99491.94;;;22.56;nan
62800;BME280;48842;51.046;13.796;2023-07-02T07:30:52;99496.22;;;22.58;nan
62800;BME280;48842;51.046;13.796;2023-07-02T07:33:17;99481.84;;;22.61;nan
62800;BME280;48842;51.046;13.796;2023-07-02T07:35:42;99483.47;;;22.63;nan
62800;BME280;48842;51.046;13.796;2023-07-02T07:38:08;99485.00;;;22.67;nan
62800;BME280;48842;51.046;13.796;2023-07-02T07:40:33;99488.97;;;22.60;nan
62800;BME280;48842;51.046;13.796;2023-07-02T07:42:58;99488.50;;;22.54;nan
62800;BME280;48842;51.046;13.796;2023-07-02T07:45:23;99482.84;;;22.28;nan
62800;BME280;48842;51.046;13.796;2023-07-02T07:47:49;99492.25;;;22.19;nan
62800;BME280;48842;51.046;13.796;2023-07-02T07:50:14;99492.72;;;22.11;nan
62800;BME280;48842;51.046;13.796;2023-07-02T07:52:40;99490.78;;;22.13;nan
62800;BME280;48842;51.046;13.796;2023-07-02T07:55:06;99482.84;;;22.28;nan
62800;BME280;48842;51.046;13.796;2023-07-02T07:57:35;99480.25;;;22.42;nan
62800;BME280;48842;51.046;13.796;2023-07-02T08:00:01;99485.75;;;22.55;nan
62800;BME280;48842;51.046;13.796;2023-07-02T08:02:26;99483.56;;;22.62;nan
62800;BME280;48842;51.046;13.796;2023-07-02T08:04:51;99476.41;;;22.62;nan
62800;BME280;48842;51.046;13.796;2023-07-02T08:07:17;99470.03;;;22.65;nan
62800;BME280;48842;51.046;13.796;2023-07-02T08:09:42;99471.38;;;22.72;nan
62800;BME280;48842;51.046;13.796;2023-07-02T08:12:07;99479.31;;;22.88;nan
62800;BME280;48842;51.046;13.796;2023-07-02T08:14:33;99478.47;;;23.02;nan
62800;BME280;48842;51.046;13.796;2023-07-02T08:17:00;99481.38;;;23.13;nan
62800;BME280;48842;51.046;13.796;2023-07-02T08:19:25;99473.59;;;23.09;nan
62800;BME280;48842;51.046;13.796;2023-07-02T08:21:50;99478.25;;;23.05;nan
62800;BME280;48842;51.046;13.796;2023-07-02T08:24:16;99479.03;;;23.07;nan
62800;BME280;48842;51.046;13.796;2023-07-02T08:26:41;99478.50;;;23.16;nan
62800;BME280;48842;51.046;13.796;2023-07-02T08:29:06;99489.56;;;23.25;nan
62800;BME280;48842;51.046;13.796;2023-07-02T08:31:32;99488.03;;;23.21;nan
62800;BME280;48842;51.046;13.796;2023-07-02T08:33:57;99495.47;;;23.15;nan
62800;BME280;48842;51.046;13.796;2023-07-02T08:36:22;99489.56;;;23.25;nan
62800;BME280;48842;51.046;13.796;2023-07-02T08:38:47;99480.88;;;23.35;nan
62800;BME280;48842;51.046;13.796;2023-07-02T08:41:13;99484.56;;;23.47;nan
62800;BME280;48842;51.046;13.796;2023-07-02T08:43:38;99495.75;;;23.54;nan
62800;BME280;48842;51.046;13.796;2023-07-02T08:46:04;99492.31;;;23.52;nan
62800;BME280;48842;51.046;13.796;2023-07-02T08:48:29;99495.06;;;23.50;nan
62800;BME280;48842;51.046;13.796;2023-07-02T08:50:55;99498.88;;;23.46;nan
62800;BME280;48842;51.046;13.796;2023-07-02T08:53:21;99501.38;;;23.49;nan
62800;BME280;48842;51.046;13.796;2023-07-02T08:55:50;99512.84;;;23.37;nan
62800;BME280;48842;51.046;13.796;2023-07-02T08:58:16;99502.34;;;23.34;nan
62800;BME280;48842;51.046;13.796;2023-07-02T09:01:11;99501.66;;;23.30;nan
62800;BME280;48842;51.046;13.796;2023-07-02T09:03:38;99506.75;;;23.35;nan
62800;BME280;48842;51.046;13.796;2023-07-02T09:06:04;99497.94;;;23.33;nan
62800;BME280;48842;51.046;13.796;2023-07-02T09:08:30;99506.16;;;23.44;nan
62800;BME280;48842;51.046;13.796;2023-07-02T09:11:12;99496.31;;;23.45;nan
62800;BME280;48842;51.046;13.796;2023-07-02T09:13:51;99502.25;;;23.50;nan
62800;BME280;48842;51.046;13.796;2023-07-02T09:16:33;99495.44;;;23.59;nan
62800;BME280;48842;51.046;13.796;2023-07-02T09:19:03;99497.81;;;23.63;nan
62800;BME280;48842;51.046;13.796;2023-07-02T09:21:41;99501.94;;;23.69;nan
62800;BME280;48842;51.046;13.796;2023-07-02T09:24:21;99502.66;;;23.71;nan
62800;BME280;48842;51.046;13.796;2023-07-02T09:26:49;99505.00;;;23.63;nan
62800;BME280;48842;51.046;13.796;2023-07-02T09:29:23;99508.13;;;23.69;nan
62800;BME280;48842;51.046;13.796;2023-07-02T09:31:49;99513.28;;;23.87;nan
62800;BME280;48842;51.046;13.796;2023-07-02T09:34:15;99507.03;;;24.01;nan
62800;BME280;48842;51.046;13.796;2023-07-02T09:36:40;99510.81;;;24.11;nan
62800;BME280;48842;51.046;13.796;2023-07-02T09:39:19;99504.50;;;24.12;nan
62800;BME280;48842;51.046;13.796;2023-07-02T09:41:48;99512.28;;;24.02;nan
62800;BME280;48842;51.046;13.796;2023-07-02T09:44:14;99507.16;;;24.12;nan
62800;BME280;48842;51.046;13.796;2023-07-02T09:46:42;99504.41;;;24.14;nan
62800;BME280;48842;51.046;13.796;2023-07-02T09:49:14;99496.31;;;24.28;nan
62800;BME280;48842;51.046;13.796;2023-07-02T09:51:40;99494.97;;;24.48;nan
62800;BME280;48842;51.046;13.796;2023-07-02T09:54:06;99507.81;;;24.56;nan
62800;BME280;48842;51.046;13.796;2023-07-02T09:56:32;99500.38;;;24.61;nan
62800;BME280;48842;51.046;13.796;2023-07-02T09:58:57;99513.72;;;24.48;nan
62800;BME280;48842;51.046;13.796;2023-07-02T10:01:23;99504.28;;;24.43;nan
62800;BME280;48842;51.046;13.796;2023-07-02T10:03:48;99499.38;;;24.49;nan
62800;BME280;48842;51.046;13.796;2023-07-02T10:06:13;99502.00;;;24.64;nan
62800;BME280;48842;51.046;13.796;2023-07-02T10:08:38;99510.47;;;24.83;nan
62800;BME280;48842;51.046;13.796;2023-07-02T10:11:13;99498.25;;;24.92;nan
62800;BME280;48842;51.046;13.796;2023-07-02T10:13:39;99498.47;;;24.89;nan
62800;BME280;48842;51.046;13.796;2023-07-02T10:16:05;99499.53;;;24.86;nan
62800;BME280;48842;51.046;13.796;2023-07-02T10:18:31;99503.75;;;24.90;nan
62800;BME280;48842;51.046;13.796;2023-07-02T10:20:56;99505.66;;;25.01;nan
62800;BME280;48842;51.046;13.796;2023-07-02T10:23:34;99511.88;;;25.02;nan
62800;BME280;48842;51.046;13.796;2023-07-02T10:26:10;99508.56;;;24.98;nan
62800;BME280;48842;51.046;13.796;2023-07-02T10:28:36;99499.44;;;24.88;nan
62800;BME280;48842;51.046;13.796;2023-07-02T10:31:01;99499.88;;;24.95;nan
62800;BME280;48842;51.046;13.796;2023-07-02T10:33:26;99509.00;;;25.05;nan
62800;BME280;48842;51.046;13.796;2023-07-02T10:35:52;99514.25;;;25.19;nan
62800;BME280;48842;51.046;13.796;2023-07-02T10:38:22;99514.53;;;25.27;nan
62800;BME280;48842;51.046;13.796;2023-07-02T10:40:54;99501.06;;;25.29;nan
62800;BME280;48842;51.046;13.796;2023-07-02T10:43:27;99507.19;;;25.31;nan
62800;BME280;48842;51.046;13.796;2023-07-02T10:45:57;99505.69;;;25.40;nan
62800;BME280;48842;51.046;13.796;2023-07-02T10:48:25;99508.44;;;25.51;nan
62800;BME280;48842;51.046;13.796;2023-07-02T10:50:50;99512.09;;;25.50;nan
62800;BME280;48842;51.046;13.796;2023-07-02T10:53:17;99502.75;;;25.30;nan
62800;BME280;48842;51.046;13.796;2023-07-02T10:55:42;99499.22;;;25.30;nan
62800;BME280;48842;51.046;13.796;2023-07-02T10:58:09;99498.06;;;25.21;nan
62800;BME280;48842;51.046;13.796;2023-07-02T11:00:48;99494.09;;;25.26;nan
62800;BME280;48842;51.046;13.796;2023-07-02T11:03:24;99484.00;;;25.43;nan
62800;BME280;48842;51.046;13.796;2023-07-02T11:05:50;99495.69;;;25.42;nan
62800;BME280;48842;51.046;13.796;2023-07-02T11:08:17;99494.50;;;25.33;nan
62800;BME280;48842;51.046;13.796;2023-07-02T11:10:43;99491.31;;;25.15;nan
62800;BME280;48842;51.046;13.796;2023-07-02T11:13:16;99491.63;;;24.98;nan
62800;BME280;48842;51.046;13.796;2023-07-02T11:15:42;99482.72;;;24.84;nan
62800;BME280;48842;51.046;13.796;2023-07-02T11:18:11;99483.69;;;24.83;nan
62800;BME280;48842;51.046;13.796;2023-07-02T11:20:36;99491.84;;;24.82;nan
62800;BME280;48842;51.046;13.796;2023-07-02T11:23:02;99485.94;;;24.89;nan
62800;BME280;48842;51.046;13.796;2023-07-02T11:25:27;99493.22;;;24.87;nan
62800;BME280;48842;51.046;13.796;2023-07-02T11:28:02;99490.34;;;24.90;nan
62800;BME280;48842;51.046;13.796;2023-07-02T11:30:28;99498.72;;;24.99;nan
62800;BME280;48842;51.046;13.796;2023-07-02T11:32:54;99479.50;;;24.92;nan
62800;BME280;48842;51.046;13.796;2023-07-02T11:35:20;99488.94;;;24.98;nan
62800;BME280;48842;51.046;13.796;2023-07-02T11:37:46;99491.09;;;25.05;nan
62800;BME280;48842;51.046;13.796;2023-07-02T11:40:13;99474.66;;;25.10;nan
62800;BME280;48842;51.046;13.796;2023-07-02T11:42:39;99497.22;;;25.20;nan
62800;BME280;48842;51.046;13.796;2023-07-02T11:45:04;99483.38;;;25.14;nan
62800;BME280;48842;51.046;13.796;2023-07-02T11:47:30;99488.72;;;25.26;nan
62800;BME280;48842;51.046;13.796;2023-07-02T11:49:55;99488.41;;;25.31;nan
62800;BME280;48842;51.046;13.796;2023-07-02T11:52:21;99491.72;;;25.35;nan
62800;BME280;48842;51.046;13.796;2023-07-02T11:54:47;99500.75;;;25.34;nan
62800;BME280;48842;51.046;13.796;2023-07-02T11:57:13;99503.75;;;25.29;nan
62800;BME280;48842;51.046;13.796;2023-07-02T11:59:38;99502.88;;;25.29;nan
62800;BME280;48842;51.046;13.796;2023-07-02T12:02:04;99502.34;;;25.36;nan
62800;BME280;48842;51.046;13.796;2023-07-02T12:04:29;99502.16;;;25.39;nan
62800;BME280;48842;51.046;13.796;2023-07-02T12:06:54;99505.22;;;25.46;nan
62800;BME280;48842;51.046;13.796;2023-07-02T12:09:20;99524.44;;;25.40;nan
62800;BME280;48842;51.046;13.796;2023-07-02T12:11:45;99510.59;;;25.46;nan
62800;BME280;48842;51.046;13.796;2023-07-02T12:14:11;99515.84;;;25.48;nan
62800;BME280;48842;51.046;13.796;2023-07-02T12:16:36;99499.03;;;25.46;nan
62800;BME280;48842;51.046;13.796;2023-07-02T12:19:01;99507.16;;;25.57;nan
62800;BME280;48842;51.046;13.796;2023-07-02T12:21:27;99497.28;;;25.57;nan
62800;BME280;48842;51.046;13.796;2023-07-02T12:23:52;99509.84;;;25.57;nan
62800;BME280;48842;51.046;13.796;2023-07-02T12:26:18;99498.34;;;25.55;nan
62800;BME280;48842;51.046;13.796;2023-07-02T12:28:44;99506.41;;;25.42;nan
62800;BME280;48842;51.046;13.796;2023-07-02T12:31:09;99498.81;;;25.73;nan
62800;BME280;48842;51.046;13.796;2023-07-02T12:33:35;99503.88;;;25.77;nan
62800;BME280;48842;51.046;13.796;2023-07-02T12:36:00;99486.13;;;26.01;nan
62800;BME280;48842;51.046;13.796;2023-07-02T12:38:25;99502.25;;;26.12;nan
62800;BME280;48842;51.046;13.796;2023-07-02T12:40:50;99496.22;;;26.21;nan
62800;BME280;48842;51.046;13.796;2023-07-02T12:43:16;99500.47;;;26.24;nan
62800;BME280;48842;51.046;13.796;2023-07-02T12:45:41;99505.63;;;26.03;nan
62800;BME280;48842;51.046;13.796;2023-07-02T12:48:06;99516.03;;;25.94;nan
62800;BME280;48842;51.046;13.796;2023-07-02T12:50:31;99509.69;;;26.08;nan
62800;BME280;48842;51.046;13.796;2023-07-02T12:52:57;99505.47;;;26.17;nan
62800;BME280;48842;51.046;13.796;2023-07-02T12:55:22;99528.03;;;26.15;nan
62800;BME280;48842;51.046;13.796;2023-07-02T12:57:47;99509.69;;;26.08;nan
62800;BME280;48842;51.046;13.796;2023-07-02T13:00:12;99516.44;;;26.14;nan
62800;BME280;48842;51.046;13.796;2023-07-02T13:02:38;99521.00;;;26.01;nan
62800;BME280;48842;51.046;13.796;2023-07-02T13:05:03;99526.31;;;26.13;nan